sensor_id;sensor_type;location;lat;lon;timestamp;P1;durP1;ratioP1;P2;durP2;ratioP2
73452;SDS011;61687;56.232;43.854;2022-10-12T00:01:54;11.60;;;5.32;;
73452;SDS011;61687;56.232;43.854;2022-10-12T00:04:20;6.97;;;4.50;;
73452;SDS011;61687;56.232;43.854;2022-10-12T00:06:46;7.80;;;3.87;;
73452;SDS011;61687;56.232;43.854;2022-10-12T00:09:12;11.63;;;5.50;;
73452;SDS011;61687;56.232;43.854;2022-10-12T00:11:38;6.97;;;4.85;;
73452;SDS011;61687;56.232;43.854;2022-10-12T00:14:05;8.95;;;4.75;;
73452;SDS011;61687;56.232;43.854;2022-10-12T00:16:31;7.67;;;5.10;;
73452;SDS011;61687;56.232;43.854;2022-10-12T00:18:59;7.07;;;4.68;;
73452;SDS011;61687;56.232;43.854;2022-10-12T00:21:28;8.35;;;4.85;;
73452;SDS011;61687;56.232;43.854;2022-10-12T00:23:55;10.35;;;5.32;;
73452;SDS011;61687;56.232;43.854;2022-10-12T00:26:23;8.52;;;5.00;;
73452;SDS011;61687;56.232;43.854;2022-10-12T00:28:53;8.63;;;5.10;;
73452;SDS011;61687;56.232;43.854;2022-10-12T00:31:21;7.80;;;4.72;;
73452;SDS011;61687;56.232;43.854;2022-10-12T00:33:48;8.43;;;4.40;;
73452;SDS011;61687;56.232;43.854;2022-10-12T00:36:15;8.80;;;5.47;;
73452;SDS011;61687;56.232;43.854;2022-10-12T00:38:42;10.73;;;6.15;;
73452;SDS011;61687;56.232;43.854;2022-10-12T00:41:08;13.57;;;5.63;;
73452;SDS011;61687;56.232;43.854;2022-10-12T00:43:35;10.15;;;6.05;;
73452;SDS011;61687;56.232;43.854;2022-10-12T00:46:04;8.52;;;5.40;;
73452;SDS011;61687;56.232;43.854;2022-10-12T00:48:51;9.57;;;6.10;;
73452;SDS011;61687;56.232;43.854;2022-10-12T00:51:24;8.10;;;4.80;;
73452;SDS011;61687;56.232;43.854;2022-10-12T00:53:55;10.90;;;5.23;;
73452;SDS011;61687;56.232;43.854;2022-10-12T00:56:25;8.35;;;5.03;;
73452;SDS011;61687;56.232;43.854;2022-10-12T00:58:55;7.97;;;4.68;;
73452;SDS011;61687;56.232;43.854;2022-10-12T01:01:25;8.52;;;5.53;;
73452;SDS011;61687;56.232;43.854;2022-10-12T01:03:52;7.88;;;5.65;;
73452;SDS011;61687;56.232;43.854;2022-10-12T01:06:17;8.20;;;5.60;;
73452;SDS011;61687;56.232;43.854;2022-10-12T01:08:44;10.02;;;5.90;;
73452;SDS011;61687;56.232;43.854;2022-10-12T01:11:11;9.70;;;6.05;;
73452;SDS011;61687;56.232;43.854;2022-10-12T01:13:37;9.05;;;5.72;;
73452;SDS011;61687;56.232;43.854;2022-10-12T01:16:15;7.47;;;5.20;;
73452;SDS011;61687;56.232;43.854;2022-10-12T01:18:52;12.63;;;5.53;;
73452;SDS011;61687;56.232;43.854;2022-10-12T01:21:20;11.00;;;5.90;;
73452;SDS011;61687;56.232;43.854;2022-10-12T01:39:54;7.97;;;5.80;;
73452;SDS011;61687;56.232;43.854;2022-10-12T01:42:23;12.32;;;6.07;;
73452;SDS011;61687;56.232;43.854;2022-10-12T01:47:51;7.85;;;4.82;;
73452;SDS011;61687;56.232;43.854;2022-10-12T01:50:19;10.70;;;5.80;;
73452;SDS011;61687;56.232;43.854;2022-10-12T01:55:44;8.48;;;6.32;;
73452;SDS011;61687;56.232;43.854;2022-10-12T02:01:18;9.38;;;5.88;;
73452;SDS011;61687;56.232;43.854;2022-10-12T02:03:56;9.20;;;5.28;;
73452;SDS011;61687;56.232;43.854;2022-10-12T02:06:31;8.68;;;5.82;;
73452;SDS011;61687;56.232;43.854;2022-10-12T02:09:09;10.48;;;5.38;;
73452;SDS011;61687;56.232;43.854;2022-10-12T02:11:44;11.07;;;5.10;;
73452;SDS011;61687;56.232;43.854;2022-10-12T02:14:15;9.38;;;5.43;;
73452;SDS011;61687;56.232;43.854;2022-10-12T02:16:51;9.18;;;5.63;;
73452;SDS011;61687;56.232;43.854;2022-10-12T02:19:27;10.85;;;5.32;;
73452;SDS011;61687;56.232;43.854;2022-10-12T02:22:16;9.45;;;6.40;;
73452;SDS011;61687;56.232;43.854;2022-10-12T02:24:43;7.67;;;5.20;;
73452;SDS011;61687;56.232;43.854;2022-10-12T02:27:12;10.98;;;6.20;;
73452;SDS011;61687;56.232;43.854;2022-10-12T02:29:41;9.60;;;6.10;;
73452;SDS011;61687;56.232;43.854;2022-10-12T02:37:34;11.33;;;6.90;;
73452;SDS011;61687;56.232;43.854;2022-10-12T02:40:37;8.70;;;6.05;;
73452;SDS011;61687;56.232;43.854;2022-10-12T02:43:10;12.43;;;5.85;;
73452;SDS011;61687;56.232;43.854;2022-10-12T02:45:42;12.15;;;6.75;;
73452;SDS011;61687;56.232;43.854;2022-10-12T02:48:11;13.93;;;6.40;;
73452;SDS011;61687;56.232;43.854;2022-10-12T02:50:41;13.10;;;6.70;;
73452;SDS011;61687;56.232;43.854;2022-10-12T02:53:07;9.10;;;6.15;;
73452;SDS011;61687;56.232;43.854;2022-10-12T02:55:47;11.40;;;5.78;;
73452;SDS011;61687;56.232;43.854;2022-10-12T02:58:14;12.75;;;6.40;;
73452;SDS011;61687;56.232;43.854;2022-10-12T03:00:41;10.93;;;7.03;;
73452;SDS011;61687;56.232;43.854;2022-10-12T03:03:07;11.60;;;6.97;;
73452;SDS011;61687;56.232;43.854;2022-10-12T03:05:33;9.73;;;6.60;;
73452;SDS011;61687;56.232;43.854;2022-10-12T03:07:59;10.23;;;6.63;;
73452;SDS011;61687;56.232;43.854;2022-10-12T03:10:25;11.80;;;6.95;;
73452;SDS011;61687;56.232;43.854;2022-10-12T03:12:51;12.50;;;6.67;;
73452;SDS011;61687;56.232;43.854;2022-10-12T03:15:18;16.17;;;7.35;;
73452;SDS011;61687;56.232;43.854;2022-10-12T03:17:44;13.10;;;6.75;;
73452;SDS011;61687;56.232;43.854;2022-10-12T03:20:10;12.35;;;7.15;;
73452;SDS011;61687;56.232;43.854;2022-10-12T03:22:36;12.80;;;7.47;;
73452;SDS011;61687;56.232;43.854;2022-10-12T03:25:02;14.10;;;7.82;;
73452;SDS011;61687;56.232;43.854;2022-10-12T03:27:29;14.18;;;8.32;;
73452;SDS011;61687;56.232;43.854;2022-10-12T03:29:55;13.30;;;7.35;;
73452;SDS011;61687;56.232;43.854;2022-10-12T03:32:21;13.68;;;8.00;;
73452;SDS011;61687;56.232;43.854;2022-10-12T03:34:47;15.37;;;7.80;;
73452;SDS011;61687;56.232;43.854;2022-10-12T03:37:13;14.13;;;7.80;;
73452;SDS011;61687;56.232;43.854;2022-10-12T03:39:39;16.80;;;8.70;;
73452;SDS011;61687;56.232;43.854;2022-10-12T03:42:05;13.67;;;7.53;;
73452;SDS011;61687;56.232;43.854;2022-10-12T03:44:31;15.73;;;9.83;;
73452;SDS011;61687;56.232;43.854;2022-10-12T03:46:56;16.50;;;8.70;;
73452;SDS011;61687;56.232;43.854;2022-10-12T03:49:22;18.30;;;9.20;;
73452;SDS011;61687;56.232;43.854;2022-10-12T03:51:48;13.67;;;8.00;;
73452;SDS011;61687;56.232;43.854;2022-10-12T03:54:14;14.55;;;8.82;;
73452;SDS011;61687;56.232;43.854;2022-10-12T03:56:40;16.48;;;8.45;;
73452;SDS011;61687;56.232;43.854;2022-10-12T03:59:06;18.02;;;8.85;;
73452;SDS011;61687;56.232;43.854;2022-10-12T04:01:32;13.85;;;8.90;;
73452;SDS011;61687;56.232;43.854;2022-10-12T04:03:59;12.53;;;7.70;;
73452;SDS011;61687;56.232;43.854;2022-10-12T04:06:25;14.90;;;8.68;;
73452;SDS011;61687;56.232;43.854;2022-10-12T04:08:50;13.70;;;8.23;;
73452;SDS011;61687;56.232;43.854;2022-10-12T04:11:16;13.45;;;8.82;;
73452;SDS011;61687;56.232;43.854;2022-10-12T04:13:44;13.20;;;7.50;;
73452;SDS011;61687;56.232;43.854;2022-10-12T04:16:10;12.82;;;7.70;;
73452;SDS011;61687;56.232;43.854;2022-10-12T04:18:36;13.45;;;7.68;;
73452;SDS011;61687;56.232;43.854;2022-10-12T04:21:02;14.30;;;7.47;;
73452;SDS011;61687;56.232;43.854;2022-10-12T04:23:34;13.57;;;8.03;;
73452;SDS011;61687;56.232;43.854;2022-10-12T04:26:00;14.07;;;8.23;;
73452;SDS011;61687;56.232;43.854;2022-10-12T04:28:28;14.60;;;7.53;;
73452;SDS011;61687;56.232;43.854;2022-10-12T04:30:54;13.65;;;8.10;;
73452;SDS011;61687;56.232;43.854;2022-10-12T04:33:19;15.53;;;8.23;;
73452;SDS011;61687;56.232;43.854;2022-10-12T04:35:45;14.95;;;8.73;;
73452;SDS011;61687;56.232;43.854;2022-10-12T04:38:11;14.45;;;7.88;;
73452;SDS011;61687;56.232;43.854;2022-10-12T04:40:38;13.67;;;7.67;;
73452;SDS011;61687;56.232;43.854;2022-10-12T04:43:04;17.50;;;8.90;;
73452;SDS011;61687;56.232;43.854;2022-10-12T04:45:30;13.27;;;7.97;;
73452;SDS011;61687;56.232;43.854;2022-10-12T04:47:56;15.07;;;8.93;;
73452;SDS011;61687;56.232;43.854;2022-10-12T04:50:22;18.17;;;9.20;;
73452;SDS011;61687;56.232;43.854;2022-10-12T04:52:47;15.32;;;9.18;;
73452;SDS011;61687;56.232;43.854;2022-10-12T04:55:13;12.57;;;7.43;;
73452;SDS011;61687;56.232;43.854;2022-10-12T04:57:39;12.30;;;6.97;;
73452;SDS011;61687;56.232;43.854;2022-10-12T05:00:06;13.55;;;7.65;;
73452;SDS011;61687;56.232;43.854;2022-10-12T05:02:32;14.02;;;8.13;;
73452;SDS011;61687;56.232;43.854;2022-10-12T05:04:58;15.93;;;7.90;;
73452;SDS011;61687;56.232;43.854;2022-10-12T05:07:24;13.57;;;9.20;;
73452;SDS011;61687;56.232;43.854;2022-10-12T05:09:50;14.93;;;7.40;;
73452;SDS011;61687;56.232;43.854;2022-10-12T05:12:15;14.83;;;7.60;;
73452;SDS011;61687;56.232;43.854;2022-10-12T05:14:41;16.47;;;7.60;;
73452;SDS011;61687;56.232;43.854;2022-10-12T05:17:09;14.05;;;7.75;;
73452;SDS011;61687;56.232;43.854;2022-10-12T05:19:35;16.15;;;7.85;;
73452;SDS011;61687;56.232;43.854;2022-10-12T05:22:01;12.90;;;7.68;;
73452;SDS011;61687;56.232;43.854;2022-10-12T05:24:27;13.30;;;7.73;;
73452;SDS011;61687;56.232;43.854;2022-10-12T05:26:53;15.20;;;8.10;;
73452;SDS011;61687;56.232;43.854;2022-10-12T05:29:19;14.45;;;7.10;;
73452;SDS011;61687;56.232;43.854;2022-10-12T05:31:45;10.67;;;7.03;;
73452;SDS011;61687;56.232;43.854;2022-10-12T05:34:11;13.02;;;7.20;;
73452;SDS011;61687;56.232;43.854;2022-10-12T05:36:36;14.60;;;7.90;;
73452;SDS011;61687;56.232;43.854;2022-10-12T05:39:02;14.00;;;8.23;;
73452;SDS011;61687;56.232;43.854;2022-10-12T05:41:28;13.18;;;8.10;;
73452;SDS011;61687;56.232;43.854;2022-10-12T05:43:54;17.77;;;7.32;;
73452;SDS011;61687;56.232;43.854;2022-10-12T05:46:20;16.93;;;8.97;;
73452;SDS011;61687;56.232;43.854;2022-10-12T05:48:46;14.50;;;8.85;;
73452;SDS011;61687;56.232;43.854;2022-10-12T05:51:12;14.68;;;8.70;;
73452;SDS011;61687;56.232;43.854;2022-10-12T05:53:37;14.77;;;9.03;;
73452;SDS011;61687;56.232;43.854;2022-10-12T05:56:03;15.55;;;8.07;;
73452;SDS011;61687;56.232;43.854;2022-10-12T05:58:29;13.68;;;7.55;;
73452;SDS011;61687;56.232;43.854;2022-10-12T06:01:11;18.40;;;8.43;;
73452;SDS011;61687;56.232;43.854;2022-10-12T06:03:38;12.77;;;7.22;;
73452;SDS011;61687;56.232;43.854;2022-10-12T06:06:04;14.15;;;8.27;;
73452;SDS011;61687;56.232;43.854;2022-10-12T06:08:31;12.32;;;7.53;;
73452;SDS011;61687;56.232;43.854;2022-10-12T06:10:58;11.90;;;8.25;;
73452;SDS011;61687;56.232;43.854;2022-10-12T06:13:25;13.10;;;7.97;;
73452;SDS011;61687;56.232;43.854;2022-10-12T06:15:51;12.45;;;7.63;;
73452;SDS011;61687;56.232;43.854;2022-10-12T06:18:17;15.98;;;8.50;;
73452;SDS011;61687;56.232;43.854;2022-10-12T06:20:46;13.02;;;7.90;;
73452;SDS011;61687;56.232;43.854;2022-10-12T06:23:13;16.30;;;8.18;;
73452;SDS011;61687;56.232;43.854;2022-10-12T06:25:40;15.93;;;8.40;;
73452;SDS011;61687;56.232;43.854;2022-10-12T06:28:06;16.70;;;8.82;;
73452;SDS011;61687;56.232;43.854;2022-10-12T06:30:32;13.80;;;9.23;;
73452;SDS011;61687;56.232;43.854;2022-10-12T06:32:58;17.67;;;9.73;;
73452;SDS011;61687;56.232;43.854;2022-10-12T06:35:24;15.90;;;8.43;;
73452;SDS011;61687;56.232;43.854;2022-10-12T06:37:50;16.75;;;9.35;;
73452;SDS011;61687;56.232;43.854;2022-10-12T06:40:16;16.33;;;10.23;;
73452;SDS011;61687;56.232;43.854;2022-10-12T06:42:43;16.65;;;9.32;;
73452;SDS011;61687;56.232;43.854;2022-10-12T06:45:10;20.50;;;10.07;;
73452;SDS011;61687;56.232;43.854;2022-10-12T06:47:36;17.38;;;9.18;;
73452;SDS011;61687;56.232;43.854;2022-10-12T06:50:02;17.60;;;8.32;;
73452;SDS011;61687;56.232;43.854;2022-10-12T06:52:29;15.70;;;9.68;;
73452;SDS011;61687;56.232;43.854;2022-10-12T06:54:56;15.70;;;8.83;;
73452;SDS011;61687;56.232;43.854;2022-10-12T06:57:21;15.93;;;8.88;;
73452;SDS011;61687;56.232;43.854;2022-10-12T06:59:47;16.70;;;8.70;;
73452;SDS011;61687;56.232;43.854;2022-10-12T07:02:13;17.47;;;10.10;;
73452;SDS011;61687;56.232;43.854;2022-10-12T07:04:39;15.95;;;9.75;;
73452;SDS011;61687;56.232;43.854;2022-10-12T07:07:05;18.40;;;9.07;;
73452;SDS011;61687;56.232;43.854;2022-10-12T07:09:31;18.57;;;9.80;;
73452;SDS011;61687;56.232;43.854;2022-10-12T07:11:57;21.80;;;10.50;;
73452;SDS011;61687;56.232;43.854;2022-10-12T07:14:23;17.80;;;10.60;;
73452;SDS011;61687;56.232;43.854;2022-10-12T07:16:49;17.50;;;9.57;;
73452;SDS011;61687;56.232;43.854;2022-10-12T07:19:15;14.70;;;9.17;;
73452;SDS011;61687;56.232;43.854;2022-10-12T07:21:41;17.02;;;9.48;;
73452;SDS011;61687;56.232;43.854;2022-10-12T07:24:10;17.55;;;10.30;;
73452;SDS011;61687;56.232;43.854;2022-10-12T07:26:36;20.42;;;9.90;;
73452;SDS011;61687;56.232;43.854;2022-10-12T07:29:02;16.67;;;9.65;;
73452;SDS011;61687;56.232;43.854;2022-10-12T07:31:28;19.93;;;10.20;;
73452;SDS011;61687;56.232;43.854;2022-10-12T07:33:54;20.27;;;9.98;;
73452;SDS011;61687;56.232;43.854;2022-10-12T07:36:20;19.00;;;10.27;;
73452;SDS011;61687;56.232;43.854;2022-10-12T07:38:46;20.87;;;10.97;;
73452;SDS011;61687;56.232;43.854;2022-10-12T07:41:13;19.25;;;10.77;;
73452;SDS011;61687;56.232;43.854;2022-10-12T07:43:40;20.55;;;11.05;;
73452;SDS011;61687;56.232;43.854;2022-10-12T07:46:06;17.33;;;9.50;;
73452;SDS011;61687;56.232;43.854;2022-10-12T07:48:33;15.57;;;9.40;;
73452;SDS011;61687;56.232;43.854;2022-10-12T07:51:06;15.47;;;8.97;;
73452;SDS011;61687;56.232;43.854;2022-10-12T07:53:34;21.55;;;10.00;;
73452;SDS011;61687;56.232;43.854;2022-10-12T07:56:00;17.08;;;9.05;;
73452;SDS011;61687;56.232;43.854;2022-10-12T07:58:28;16.45;;;10.52;;
73452;SDS011;61687;56.232;43.854;2022-10-12T08:00:54;18.10;;;10.88;;
73452;SDS011;61687;56.232;43.854;2022-10-12T08:03:19;16.90;;;10.60;;
73452;SDS011;61687;56.232;43.854;2022-10-12T08:05:45;18.08;;;11.50;;
73452;SDS011;61687;56.232;43.854;2022-10-12T08:08:11;18.27;;;10.88;;
73452;SDS011;61687;56.232;43.854;2022-10-12T08:10:38;18.23;;;11.65;;
73452;SDS011;61687;56.232;43.854;2022-10-12T08:13:04;18.80;;;11.33;;
73452;SDS011;61687;56.232;43.854;2022-10-12T08:15:30;20.45;;;12.07;;
73452;SDS011;61687;56.232;43.854;2022-10-12T08:17:56;19.73;;;13.18;;
73452;SDS011;61687;56.232;43.854;2022-10-12T08:20:22;21.37;;;13.13;;
73452;SDS011;61687;56.232;43.854;2022-10-12T08:22:48;21.60;;;12.35;;
73452;SDS011;61687;56.232;43.854;2022-10-12T08:25:14;25.02;;;13.73;;
73452;SDS011;61687;56.232;43.854;2022-10-12T08:27:40;19.57;;;11.50;;
73452;SDS011;61687;56.232;43.854;2022-10-12T08:30:06;22.37;;;11.87;;
73452;SDS011;61687;56.232;43.854;2022-10-12T08:32:32;20.92;;;11.77;;
73452;SDS011;61687;56.232;43.854;2022-10-12T08:34:58;23.42;;;12.05;;
73452;SDS011;61687;56.232;43.854;2022-10-12T08:37:24;19.70;;;11.60;;
73452;SDS011;61687;56.232;43.854;2022-10-12T08:39:50;20.52;;;10.68;;
73452;SDS011;61687;56.232;43.854;2022-10-12T08:47:40;20.75;;;13.10;;
73452;SDS011;61687;56.232;43.854;2022-10-12T08:50:19;18.55;;;12.38;;
73452;SDS011;61687;56.232;43.854;2022-10-12T08:53:10;18.80;;;11.25;;
73452;SDS011;61687;56.232;43.854;2022-10-12T08:55:42;17.70;;;10.63;;
73452;SDS011;61687;56.232;43.854;2022-10-12T08:58:16;23.57;;;11.57;;
73452;SDS011;61687;56.232;43.854;2022-10-12T09:01:12;18.65;;;11.15;;
73452;SDS011;61687;56.232;43.854;2022-10-12T09:06:22;15.95;;;10.50;;
73452;SDS011;61687;56.232;43.854;2022-10-12T09:14:43;18.38;;;9.57;;
73452;SDS011;61687;56.232;43.854;2022-10-12T09:17:21;16.73;;;9.27;;
73452;SDS011;61687;56.232;43.854;2022-10-12T09:19:59;21.63;;;9.70;;
73452;SDS011;61687;56.232;43.854;2022-10-12T09:22:29;18.10;;;11.10;;
73452;SDS011;61687;56.232;43.854;2022-10-12T09:24:58;17.80;;;10.40;;
73452;SDS011;61687;56.232;43.854;2022-10-12T09:27:26;18.88;;;10.43;;
73452;SDS011;61687;56.232;43.854;2022-10-12T09:29:58;17.83;;;10.68;;
73452;SDS011;61687;56.232;43.854;2022-10-12T09:32:39;18.52;;;10.60;;
73452;SDS011;61687;56.232;43.854;2022-10-12T09:35:26;19.73;;;11.45;;
73452;SDS011;61687;56.232;43.854;2022-10-12T09:37:52;20.10;;;12.30;;
73452;SDS011;61687;56.232;43.854;2022-10-12T09:40:20;20.77;;;12.20;;
73452;SDS011;61687;56.232;43.854;2022-10-12T09:42:50;19.67;;;12.15;;
73452;SDS011;61687;56.232;43.854;2022-10-12T09:45:19;21.98;;;13.23;;
73452;SDS011;61687;56.232;43.854;2022-10-12T09:50:52;24.50;;;14.10;;
73452;SDS011;61687;56.232;43.854;2022-10-12T09:53:24;22.70;;;13.98;;
73452;SDS011;61687;56.232;43.854;2022-10-12T09:56:06;23.23;;;13.40;;
73452;SDS011;61687;56.232;43.854;2022-10-12T09:58:41;21.73;;;13.88;;
73452;SDS011;61687;56.232;43.854;2022-10-12T10:01:15;25.52;;;15.60;;
73452;SDS011;61687;56.232;43.854;2022-10-12T10:03:44;21.87;;;12.57;;
73452;SDS011;61687;56.232;43.854;2022-10-12T10:06:12;19.23;;;11.40;;
73452;SDS011;61687;56.232;43.854;2022-10-12T10:08:41;17.30;;;11.77;;
73452;SDS011;61687;56.232;43.854;2022-10-12T10:11:13;18.00;;;9.85;;
73452;SDS011;61687;56.232;43.854;2022-10-12T10:13:45;18.40;;;9.45;;
73452;SDS011;61687;56.232;43.854;2022-10-12T10:16:14;20.77;;;11.43;;
73452;SDS011;61687;56.232;43.854;2022-10-12T10:18:59;15.95;;;9.10;;
73452;SDS011;61687;56.232;43.854;2022-10-12T10:21:27;15.50;;;9.07;;
73452;SDS011;61687;56.232;43.854;2022-10-12T10:23:57;18.27;;;9.43;;
73452;SDS011;61687;56.232;43.854;2022-10-12T10:26:25;13.80;;;8.63;;
73452;SDS011;61687;56.232;43.854;2022-10-12T10:28:56;14.73;;;8.70;;
73452;SDS011;61687;56.232;43.854;2022-10-12T10:31:40;17.45;;;9.05;;
73452;SDS011;61687;56.232;43.854;2022-10-12T10:36:32;16.80;;;9.10;;
73452;SDS011;61687;56.232;43.854;2022-10-12T10:39:03;18.77;;;9.73;;
73452;SDS011;61687;56.232;43.854;2022-10-12T10:43:57;15.55;;;9.15;;
73452;SDS011;61687;56.232;43.854;2022-10-12T10:46:24;12.80;;;8.02;;
73452;SDS011;61687;56.232;43.854;2022-10-12T10:48:54;13.25;;;8.48;;
73452;SDS011;61687;56.232;43.854;2022-10-12T10:51:46;14.83;;;8.10;;
73452;SDS011;61687;56.232;43.854;2022-10-12T10:56:46;14.10;;;7.60;;
73452;SDS011;61687;56.232;43.854;2022-10-12T10:59:40;13.27;;;8.35;;
73452;SDS011;61687;56.232;43.854;2022-10-12T11:04:45;16.43;;;9.17;;
73452;SDS011;61687;56.232;43.854;2022-10-12T11:10:16;14.93;;;9.02;;
73452;SDS011;61687;56.232;43.854;2022-10-12T11:13:13;15.25;;;8.90;;
73452;SDS011;61687;56.232;43.854;2022-10-12T11:15:54;15.65;;;10.00;;
73452;SDS011;61687;56.232;43.854;2022-10-12T11:18:23;15.17;;;7.93;;
73452;SDS011;61687;56.232;43.854;2022-10-12T11:21:13;16.77;;;10.45;;
73452;SDS011;61687;56.232;43.854;2022-10-12T11:23:44;16.67;;;10.40;;
73452;SDS011;61687;56.232;43.854;2022-10-12T11:26:22;15.40;;;9.85;;
73452;SDS011;61687;56.232;43.854;2022-10-12T11:28:53;17.45;;;9.98;;
73452;SDS011;61687;56.232;43.854;2022-10-12T11:31:27;16.97;;;9.73;;
73452;SDS011;61687;56.232;43.854;2022-10-12T11:33:57;17.15;;;9.93;;
73452;SDS011;61687;56.232;43.854;2022-10-12T11:36:28;20.17;;;10.30;;
73452;SDS011;61687;56.232;43.854;2022-10-12T11:39:05;14.50;;;8.95;;
73452;SDS011;61687;56.232;43.854;2022-10-12T11:41:40;19.58;;;9.52;;
73452;SDS011;61687;56.232;43.854;2022-10-12T11:44:17;14.63;;;9.37;;
73452;SDS011;61687;56.232;43.854;2022-10-12T11:46:48;18.13;;;10.40;;
73452;SDS011;61687;56.232;43.854;2022-10-12T11:51:52;16.45;;;8.10;;
73452;SDS011;61687;56.232;43.854;2022-10-12T11:54:24;11.90;;;8.07;;
73452;SDS011;61687;56.232;43.854;2022-10-12T11:56:51;16.53;;;9.27;;
73452;SDS011;61687;56.232;43.854;2022-10-12T12:02:12;15.27;;;8.75;;
73452;SDS011;61687;56.232;43.854;2022-10-12T12:04:42;14.80;;;9.40;;
73452;SDS011;61687;56.232;43.854;2022-10-12T12:18:26;13.95;;;8.07;;
73452;SDS011;61687;56.232;43.854;2022-10-12T12:21:04;12.98;;;8.55;;
73452;SDS011;61687;56.232;43.854;2022-10-12T12:26:16;13.68;;;7.78;;
73452;SDS011;61687;56.232;43.854;2022-10-12T12:28:46;14.20;;;7.68;;
73452;SDS011;61687;56.232;43.854;2022-10-12T12:36:41;15.30;;;8.43;;
73452;SDS011;61687;56.232;43.854;2022-10-12T12:39:25;12.43;;;7.32;;
73452;SDS011;61687;56.232;43.854;2022-10-12T12:41:58;13.82;;;8.85;;
73452;SDS011;61687;56.232;43.854;2022-10-12T12:44:42;12.82;;;8.38;;
73452;SDS011;61687;56.232;43.854;2022-10-12T12:49:39;12.33;;;7.90;;
73452;SDS011;61687;56.232;43.854;2022-10-12T12:55:10;10.15;;;6.63;;
73452;SDS011;61687;56.232;43.854;2022-10-12T13:06:20;13.30;;;7.90;;
73452;SDS011;61687;56.232;43.854;2022-10-12T13:15:26;11.60;;;6.37;;
73452;SDS011;61687;56.232;43.854;2022-10-12T13:18:06;12.75;;;6.90;;
73452;SDS011;61687;56.232;43.854;2022-10-12T13:20:50;12.40;;;7.38;;
73452;SDS011;61687;56.232;43.854;2022-10-12T13:23:20;11.35;;;7.40;;
73452;SDS011;61687;56.232;43.854;2022-10-12T13:25:49;11.13;;;6.32;;
73452;SDS011;61687;56.232;43.854;2022-10-12T13:28:23;10.33;;;6.07;;
73452;SDS011;61687;56.232;43.854;2022-10-12T13:30:58;14.77;;;7.00;;
73452;SDS011;61687;56.232;43.854;2022-10-12T13:33:37;12.35;;;7.32;;
73452;SDS011;61687;56.232;43.854;2022-10-12T13:38:41;18.55;;;11.52;;
73452;SDS011;61687;56.232;43.854;2022-10-12T13:46:56;21.45;;;12.80;;
73452;SDS011;61687;56.232;43.854;2022-10-12T13:49:16;16.48;;;9.60;;
73452;SDS011;61687;56.232;43.854;2022-10-12T13:51:47;18.08;;;10.65;;
73452;SDS011;61687;56.232;43.854;2022-10-12T13:54:22;22.27;;;12.53;;
73452;SDS011;61687;56.232;43.854;2022-10-12T13:56:59;21.25;;;12.32;;
73452;SDS011;61687;56.232;43.854;2022-10-12T13:59:29;21.55;;;12.57;;
73452;SDS011;61687;56.232;43.854;2022-10-12T14:02:01;23.75;;;13.18;;
73452;SDS011;61687;56.232;43.854;2022-10-12T14:04:29;19.38;;;12.68;;
73452;SDS011;61687;56.232;43.854;2022-10-12T14:07:04;20.40;;;12.03;;
73452;SDS011;61687;56.232;43.854;2022-10-12T14:09:38;17.70;;;10.55;;
73452;SDS011;61687;56.232;43.854;2022-10-12T14:12:08;21.35;;;13.18;;
73452;SDS011;61687;56.232;43.854;2022-10-12T14:14:36;16.58;;;10.68;;
73452;SDS011;61687;56.232;43.854;2022-10-12T14:17:04;16.95;;;10.10;;
73452;SDS011;61687;56.232;43.854;2022-10-12T14:19:32;17.23;;;9.67;;
73452;SDS011;61687;56.232;43.854;2022-10-12T14:22:04;17.08;;;10.98;;
73452;SDS011;61687;56.232;43.854;2022-10-12T14:24:33;18.85;;;11.27;;
73452;SDS011;61687;56.232;43.854;2022-10-12T14:27:00;17.20;;;10.15;;
73452;SDS011;61687;56.232;43.854;2022-10-12T14:32:52;17.17;;;10.00;;
73452;SDS011;61687;56.232;43.854;2022-10-12T14:35:18;16.60;;;9.52;;
73452;SDS011;61687;56.232;43.854;2022-10-12T14:37:50;18.15;;;11.30;;
73452;SDS011;61687;56.232;43.854;2022-10-12T14:40:34;20.15;;;12.02;;
73452;SDS011;61687;56.232;43.854;2022-10-12T14:43:18;24.15;;;13.40;;
73452;SDS011;61687;56.232;43.854;2022-10-12T14:45:51;24.13;;;13.33;;
73452;SDS011;61687;56.232;43.854;2022-10-12T14:48:18;23.27;;;14.20;;
73452;SDS011;61687;56.232;43.854;2022-10-12T14:50:47;20.98;;;12.75;;
73452;SDS011;61687;56.232;43.854;2022-10-12T14:53:14;23.30;;;12.13;;
73452;SDS011;61687;56.232;43.854;2022-10-12T14:55:40;22.88;;;12.52;;
73452;SDS011;61687;56.232;43.854;2022-10-12T14:58:09;22.37;;;12.50;;
73452;SDS011;61687;56.232;43.854;2022-10-12T15:00:39;26.20;;;12.88;;
73452;SDS011;61687;56.232;43.854;2022-10-12T15:03:05;31.60;;;13.90;;
73452;SDS011;61687;56.232;43.854;2022-10-12T15:05:32;22.77;;;11.77;;
73452;SDS011;61687;56.232;43.854;2022-10-12T15:07:59;20.98;;;12.52;;
73452;SDS011;61687;56.232;43.854;2022-10-12T15:10:26;21.17;;;12.70;;
73452;SDS011;61687;56.232;43.854;2022-10-12T15:12:52;20.65;;;12.45;;
73452;SDS011;61687;56.232;43.854;2022-10-12T15:17:57;23.15;;;12.15;;
73452;SDS011;61687;56.232;43.854;2022-10-12T15:20:24;20.70;;;11.63;;
73452;SDS011;61687;56.232;43.854;2022-10-12T15:22:51;22.47;;;11.70;;
73452;SDS011;61687;56.232;43.854;2022-10-12T15:27:48;20.02;;;11.68;;
73452;SDS011;61687;56.232;43.854;2022-10-12T15:30:14;23.77;;;12.27;;
73452;SDS011;61687;56.232;43.854;2022-10-12T15:32:40;20.97;;;10.80;;
73452;SDS011;61687;56.232;43.854;2022-10-12T15:37:44;19.50;;;11.85;;
73452;SDS011;61687;56.232;43.854;2022-10-12T15:40:10;18.63;;;11.80;;
73452;SDS011;61687;56.232;43.854;2022-10-12T15:42:37;20.73;;;11.40;;
73452;SDS011;61687;56.232;43.854;2022-10-12T15:47:50;18.10;;;10.40;;
73452;SDS011;61687;56.232;43.854;2022-10-12T15:50:17;16.77;;;10.38;;
73452;SDS011;61687;56.232;43.854;2022-10-12T15:52:45;17.50;;;9.98;;
73452;SDS011;61687;56.232;43.854;2022-10-12T15:55:24;14.90;;;9.50;;
73452;SDS011;61687;56.232;43.854;2022-10-12T15:57:54;15.38;;;9.00;;
73452;SDS011;61687;56.232;43.854;2022-10-12T16:00:21;17.00;;;10.43;;
73452;SDS011;61687;56.232;43.854;2022-10-12T16:02:50;18.88;;;9.80;;
73452;SDS011;61687;56.232;43.854;2022-10-12T16:05:22;17.40;;;10.65;;
73452;SDS011;61687;56.232;43.854;2022-10-12T16:07:52;18.13;;;10.23;;
73452;SDS011;61687;56.232;43.854;2022-10-12T16:10:20;18.80;;;10.35;;
73452;SDS011;61687;56.232;43.854;2022-10-12T16:12:50;19.55;;;10.20;;
73452;SDS011;61687;56.232;43.854;2022-10-12T16:15:22;17.60;;;10.68;;
73452;SDS011;61687;56.232;43.854;2022-10-12T16:17:49;20.05;;;11.32;;
73452;SDS011;61687;56.232;43.854;2022-10-12T16:20:16;19.07;;;10.33;;
73452;SDS011;61687;56.232;43.854;2022-10-12T16:22:42;21.90;;;11.77;;
73452;SDS011;61687;56.232;43.854;2022-10-12T16:25:09;20.27;;;11.30;;
73452;SDS011;61687;56.232;43.854;2022-10-12T16:27:37;21.92;;;11.75;;
73452;SDS011;61687;56.232;43.854;2022-10-12T16:30:07;21.48;;;11.77;;
73452;SDS011;61687;56.232;43.854;2022-10-12T16:32:34;24.03;;;10.93;;
73452;SDS011;61687;56.232;43.854;2022-10-12T16:35:00;21.58;;;10.98;;
73452;SDS011;61687;56.232;43.854;2022-10-12T16:37:26;20.33;;;10.88;;
73452;SDS011;61687;56.232;43.854;2022-10-12T16:39:52;18.73;;;11.13;;